Terminal Aerodrome Forecast
Issued by NWS

Home | Current Version | Previous Version | Graphics & Text | Print | Product List | Glossary On
Versions: 1 2 3 4 5 6 7 8 9 10 11 12 13 14 15 16 17
000
FTUS43 KBIS 231721
TAFDIK
TAF
KDIK 231721Z 2318/2418 26015G23KT P6SM FEW070
     FM240300 23005KT P6SM VCSH BKN080
     FM240600 25004KT P6SM SCT100
     FM241500 28008KT P6SM SCT100=

USA.gov is the U.S. government's official web portal to all federal, state and local government web resources and services.